Time;durP1;ratioP1;P1;durP2;ratioP2;P2;SDS_P1;SDS_P2;PMS_P1;PMS_P2;Temp;Humidity;BMP_temperature;BMP_pressure;BME280_temperature;BME280_humidity;BME280_pressure;Samples;Min_cycle;Max_cycle;Signal;HPM_P1;HPM_P2
2023/04/12 00:01:32;;;;;;;5.37;2.50;;;;;;;9.42;100.00;98032.94;5109689;28;20203;-69
2023/04/12 00:04:03;;;;;;;4.90;2.27;;;;;;;9.20;100.00;98028.84;5109635;28;20244;-73
2023/04/12 00:06:32;;;;;;;3.90;2.37;;;;;;;9.02;100.00;98041.41;5109894;28;20200;-73
2023/04/12 00:09:01;;;;;;;4.73;2.70;;;;;;;9.02;100.00;98035.50;5110015;28;20197;-69
2023/04/12 00:11:28;;;;;;;4.67;2.57;;;;;;;9.07;100.00;98034.19;5109913;28;20270;-69
2023/04/12 00:13:55;;;;;;;3.70;2.10;;;;;;;9.03;100.00;98032.00;5109775;28;20224;-73
2023/04/12 00:16:23;;;;;;;3.07;2.37;;;;;;;9.10;100.00;98025.44;5110168;28;20224;-74
2023/04/12 00:18:50;;;;;;;3.73;2.10;;;;;;;9.13;100.00;98022.63;5109846;28;20217;-73
2023/04/12 00:21:18;;;;;;;4.40;2.67;;;;;;;9.27;100.00;98019.75;5109608;28;20201;-69
2023/04/12 00:23:45;;;;;;;5.13;2.07;;;;;;;9.30;100.00;98024.59;5109537;28;20244;-73
2023/04/12 00:26:14;;;;;;;3.90;2.23;;;;;;;9.21;100.00;98015.16;5109820;28;20208;-73
2023/04/12 00:28:41;;;;;;;4.50;2.43;;;;;;;9.07;100.00;98018.06;5109731;28;20278;-73
2023/04/12 00:31:09;;;;;;;3.17;2.43;;;;;;;9.01;100.00;98013.47;5109696;28;20201;-73
2023/04/12 00:33:36;;;;;;;7.43;2.37;;;;;;;9.05;100.00;98015.66;5109441;28;20217;-73
2023/04/12 00:36:03;;;;;;;3.47;2.10;;;;;;;9.03;100.00;98001.41;5109902;28;20224;-73
2023/04/12 00:38:30;;;;;;;5.93;2.77;;;;;;;8.92;100.00;98009.13;5109580;28;20384;-70
2023/04/12 00:40:57;;;;;;;4.67;2.37;;;;;;;9.01;100.00;98008.38;5110929;28;20208;-73
2023/04/12 00:43:26;;;;;;;2.97;2.37;;;;;;;8.97;100.00;98002.72;5113198;27;20244;-69
2023/04/12 00:45:55;;;;;;;4.20;2.40;;;;;;;8.99;100.00;98005.16;5113732;28;20254;-68
2023/04/12 00:48:22;;;;;;;3.77;2.43;;;;;;;8.99;100.00;98000.88;5113124;28;20227;-73
2023/04/12 00:50:50;;;;;;;2.83;2.07;;;;;;;9.02;100.00;98005.72;5113208;28;20197;-73
2023/04/12 00:53:18;;;;;;;3.57;2.13;;;;;;;9.02;100.00;98002.34;5112967;28;20232;-68
2023/04/12 00:55:46;;;;;;;2.07;1.87;;;;;;;9.02;100.00;97994.72;5113414;28;20205;-68
2023/04/12 00:58:14;;;;;;;4.53;1.97;;;;;;;8.92;100.00;97998.94;5112951;28;20213;-68
2023/04/12 01:00:43;;;;;;;4.30;2.50;;;;;;;8.91;100.00;97987.13;5113258;28;20197;-73
2023/04/12 01:03:12;;;;;;;4.07;1.97;;;;;;;8.99;100.00;97989.88;5112885;28;20656;-69
2023/04/12 01:05:45;;;;;;;3.53;2.30;;;;;;;9.01;100.00;97987.97;5113349;28;20212;-73
2023/04/12 01:08:19;;;;;;;4.37;2.03;;;;;;;8.98;100.00;97985.69;5112828;28;20229;-69
2023/04/12 01:10:56;;;;;;;3.83;2.40;;;;;;;9.05;100.00;97981.69;5113310;28;20228;-73
2023/04/12 01:13:29;;;;;;;2.70;1.73;;;;;;;9.09;100.00;97977.94;5112565;28;20305;-74
2023/04/12 01:16:04;;;;;;;5.80;2.33;;;;;;;9.10;100.00;97976.19;5113173;28;20624;-68
2023/04/12 01:18:39;;;;;;;3.77;2.07;;;;;;;9.07;100.00;97982.34;5112635;28;20220;-69
2023/04/12 01:21:10;;;;;;;3.07;1.97;;;;;;;9.07;100.00;97977.25;5112776;28;20860;-68
2023/04/12 01:24:03;;;;;;;5.43;2.43;;;;;;;9.06;100.00;97980.75;5112220;28;20736;-73
2023/04/12 01:26:40;;;;;;;3.73;2.23;;;;;;;9.04;100.00;97977.53;5112549;28;20201;-73
2023/04/12 01:29:11;;;;;;;3.70;1.83;;;;;;;9.08;100.00;97981.44;5112580;28;20207;-73
2023/04/12 01:31:40;;;;;;;2.97;1.63;;;;;;;9.07;100.00;97973.00;5112230;28;20205;-73
2023/04/12 01:34:11;;;;;;;3.47;2.40;;;;;;;9.14;100.00;97968.19;5112451;28;20254;-69
2023/04/12 01:36:39;;;;;;;5.50;3.40;;;;;;;9.10;100.00;97966.81;5112334;28;20201;-68
2023/04/12 01:39:07;;;;;;;5.37;2.77;;;;;;;9.15;100.00;97964.69;5112517;28;20639;-68
2023/04/12 01:41:40;;;;;;;5.23;2.40;;;;;;;9.07;100.00;97967.06;5112054;28;20201;-73
2023/04/12 01:44:08;;;;;;;2.90;2.00;;;;;;;9.09;100.00;97964.41;5112176;28;20290;-69
2023/04/12 01:46:36;;;;;;;2.60;2.00;;;;;;;9.15;100.00;97963.88;5112101;28;20675;-73
2023/04/12 01:49:03;;;;;;;3.63;2.20;;;;;;;9.11;100.00;97967.63;5112077;28;20703;-73
2023/04/12 01:51:37;;;;;;;3.90;2.10;;;;;;;9.16;100.00;97968.88;5112201;28;20660;-68
2023/04/12 01:54:10;;;;;;;3.17;1.93;;;;;;;9.12;100.00;97964.94;5111604;28;20193;-68
2023/04/12 01:56:40;;;;;;;5.87;2.30;;;;;;;8.96;100.00;97970.53;5111958;28;20220;-70
2023/04/12 01:59:09;;;;;;;2.77;1.97;;;;;;;8.98;100.00;97978.03;5111965;28;20365;-73
2023/04/12 02:01:36;;;;;;;3.40;2.00;;;;;;;8.94;100.00;97969.03;5111742;28;20796;-73
2023/04/12 02:04:06;;;;;;;4.93;2.40;;;;;;;8.98;100.00;97970.38;5111943;28;20299;-73
2023/04/12 02:06:34;;;;;;;4.03;2.50;;;;;;;9.00;100.00;97973.63;5111550;28;20317;-73
2023/04/12 02:09:02;;;;;;;3.67;2.43;;;;;;;8.88;100.00;97967.81;5111833;28;20697;-69
2023/04/12 02:11:29;;;;;;;5.17;2.27;;;;;;;8.94;100.00;97972.38;5111696;28;20584;-74
2023/04/12 02:13:56;;;;;;;4.70;2.30;;;;;;;9.04;100.00;97974.97;5111836;28;20581;-69
2023/04/12 02:16:24;;;;;;;6.10;2.37;;;;;;;8.95;100.00;97968.91;5111638;28;20223;-73
2023/04/12 02:18:51;;;;;;;4.17;2.03;;;;;;;8.84;100.00;97966.44;5111956;28;20201;-74
2023/04/12 02:21:18;;;;;;;3.40;1.90;;;;;;;8.92;100.00;97971.69;5111692;28;20234;-68
2023/04/12 02:23:45;;;;;;;2.57;1.80;;;;;;;8.94;100.00;97971.59;5111388;28;20619;-69
2023/04/12 02:26:11;;;;;;;3.43;2.30;;;;;;;8.94;100.00;97971.59;5111681;28;20205;-69
2023/04/12 02:28:39;;;;;;;3.63;2.17;;;;;;;8.83;100.00;97970.72;5111262;28;20277;-73
2023/04/12 02:31:07;;;;;;;3.30;2.20;;;;;;;8.79;100.00;97969.38;5111391;28;20231;-68
2023/04/12 02:33:35;;;;;;;4.60;2.00;;;;;;;8.77;100.00;97970.44;5111186;28;20312;-73
2023/04/12 02:36:02;;;;;;;3.53;2.50;;;;;;;8.69;100.00;97972.81;5111480;28;20251;-73
2023/04/12 02:38:29;;;;;;;4.63;2.10;;;;;;;8.65;100.00;97967.16;5111488;28;20724;-73
2023/04/12 02:40:56;;;;;;;2.93;2.27;;;;;;;8.68;100.00;97966.09;5111309;28;20584;-68
2023/04/12 02:43:23;;;;;;;2.77;2.07;;;;;;;8.68;100.00;97972.00;5110791;28;20290;-68
2023/04/12 02:45:50;;;;;;;4.17;2.23;;;;;;;8.65;100.00;97961.25;5111233;28;20586;-73
2023/04/12 02:48:16;;;;;;;3.10;2.03;;;;;;;8.72;100.00;97952.16;5110948;28;20404;-69
2023/04/12 02:50:45;;;;;;;5.00;2.10;;;;;;;8.72;100.00;97963.16;5111411;28;20208;-73
2023/04/12 02:53:11;;;;;;;3.97;2.20;;;;;;;8.70;100.00;97959.94;5110933;28;20274;-73
2023/04/12 02:55:39;;;;;;;2.37;1.83;;;;;;;8.65;100.00;97959.50;5110973;28;20201;-68
2023/04/12 02:58:06;;;;;;;2.40;2.10;;;;;;;8.68;100.00;97956.72;5110922;28;20227;-73
2023/04/12 03:00:32;;;;;;;4.77;2.50;;;;;;;8.70;100.00;97964.25;5110844;28;20423;-68
2023/04/12 03:03:01;;;;;;;2.53;2.20;;;;;;;8.72;100.00;97968.25;5110798;28;20632;-74
2023/04/12 03:05:28;;;;;;;3.50;2.43;;;;;;;8.71;100.00;97963.31;5109992;28;20228;-73
2023/04/12 03:07:57;;;;;;;7.80;2.73;;;;;;;8.67;100.00;97970.41;5110592;28;20744;-68
2023/04/12 03:10:23;;;;;;;4.47;2.63;;;;;;;8.65;100.00;97962.06;5110831;28;20193;-73
2023/04/12 03:12:50;;;;;;;4.20;2.60;;;;;;;8.68;100.00;97964.34;5110589;28;20217;-73
2023/04/12 03:15:17;;;;;;;1.90;1.50;;;;;;;8.66;100.00;97963.66;5110801;28;20201;-73
2023/04/12 03:17:44;;;;;;;4.90;2.70;;;;;;;8.64;100.00;97965.56;5110259;28;20217;-73
2023/04/12 03:20:12;;;;;;;4.83;2.03;;;;;;;8.65;100.00;97966.34;5110499;28;20193;-69
2023/04/12 03:22:39;;;;;;;3.73;2.30;;;;;;;8.61;100.00;97971.69;5110833;28;20262;-68
2023/04/12 03:25:08;;;;;;;3.87;2.00;;;;;;;8.61;100.00;97965.81;5109893;27;20229;-73
2023/04/12 03:27:35;;;;;;;2.20;1.90;;;;;;;8.56;100.00;97967.91;5110330;28;20215;-68
2023/04/12 03:30:02;;;;;;;3.93;1.80;;;;;;;8.54;100.00;97967.22;5110684;28;20700;-70
2023/04/12 03:32:29;;;;;;;2.93;2.07;;;;;;;8.52;100.00;97966.53;5110556;28;20213;-73
2023/04/12 03:34:56;;;;;;;2.70;2.30;;;;;;;8.51;100.00;97970.03;5110012;28;20197;-68
2023/04/12 03:37:23;;;;;;;2.83;2.00;;;;;;;8.46;100.00;97972.13;5110184;28;20308;-73
2023/04/12 03:39:50;;;;;;;4.03;2.30;;;;;;;8.57;100.00;97974.63;5110189;28;20546;-68
2023/04/12 03:42:18;;;;;;;5.80;2.57;;;;;;;8.56;100.00;97978.09;5110295;28;20704;-69
2023/04/12 03:44:45;;;;;;;3.80;1.97;;;;;;;8.58;100.00;97981.31;5109956;28;20591;-68
2023/04/12 03:47:12;;;;;;;4.23;3.03;;;;;;;8.58;100.00;97977.06;5110121;28;20228;-73
2023/04/12 03:49:39;;;;;;;4.10;2.57;;;;;;;8.53;100.00;97981.72;5109916;28;20189;-68
2023/04/12 03:52:06;;;;;;;5.93;2.53;;;;;;;8.52;100.00;97982.66;5109921;28;20724;-73
2023/04/12 03:54:33;;;;;;;2.97;2.43;;;;;;;8.56;100.00;97984.00;5109871;28;20236;-70
2023/04/12 03:57:00;;;;;;;2.83;2.20;;;;;;;8.58;100.00;97986.41;5110108;28;20642;-73
2023/04/12 03:59:29;;;;;;;4.73;2.33;;;;;;;8.57;100.00;97979.72;5109912;28;20207;-69
2023/04/12 04:01:56;;;;;;;4.90;2.90;;;;;;;8.59;100.00;97982.94;5109601;28;20220;-68
2023/04/12 04:04:23;;;;;;;3.20;1.87;;;;;;;8.64;100.00;97985.94;5109802;28;20224;-73
2023/04/12 04:06:51;;;;;;;2.50;1.97;;;;;;;8.61;100.00;97987.00;5110095;28;20698;-73
2023/04/12 04:09:18;;;;;;;2.47;2.20;;;;;;;8.61;100.00;97988.72;5109675;28;20274;-73
2023/04/12 04:11:45;;;;;;;4.13;2.93;;;;;;;8.61;100.00;97986.19;5110007;28;20205;-68
2023/04/12 04:14:12;;;;;;;9.03;2.60;;;;;;;8.55;100.00;97992.59;5110085;28;20220;-73
2023/04/12 04:16:40;;;;;;;2.27;1.63;;;;;;;8.76;100.00;97995.13;5112092;28;20201;-68
2023/04/12 04:19:07;;;;;;;3.70;2.13;;;;;;;8.70;100.00;98005.81;5113767;28;20197;-68
2023/04/12 04:21:34;;;;;;;3.27;2.07;;;;;;;8.65;100.00;98002.81;5113792;28;20204;-68
2023/04/12 04:24:01;;;;;;;4.13;2.37;;;;;;;8.62;100.00;98018.38;5113867;28;20248;-73
2023/04/12 04:26:32;;;;;;;4.40;2.50;;;;;;;8.63;100.00;98009.78;5113605;28;20216;-73
2023/04/12 04:29:00;;;;;;;3.63;2.90;;;;;;;8.62;100.00;98018.38;5113956;28;20288;-73
2023/04/12 04:31:32;;;;;;;4.67;2.47;;;;;;;8.60;100.00;98015.13;5113850;28;20229;-68
2023/04/12 04:34:02;;;;;;;5.17;2.33;;;;;;;8.60;100.00;98021.03;5113654;28;20461;-68
2023/04/12 04:36:29;;;;;;;6.27;2.60;;;;;;;8.56;100.00;98023.97;5113882;28;20203;-68
2023/04/12 04:38:56;;;;;;;7.10;2.20;;;;;;;8.56;100.00;98026.50;5113433;28;20207;-73
2023/04/12 04:41:23;;;;;;;2.80;1.90;;;;;;;8.62;100.00;98026.00;5113592;28;20627;-68
2023/04/12 04:43:50;;;;;;;3.87;2.87;;;;;;;8.57;100.00;98038.31;5113120;28;20232;-73
2023/04/12 04:46:19;;;;;;;4.07;2.50;;;;;;;8.63;100.00;98027.63;5113682;28;20200;-73
2023/04/12 04:48:47;;;;;;;5.00;2.30;;;;;;;8.53;100.00;98029.31;5113557;28;20609;-69
2023/04/12 04:51:15;;;;;;;3.37;2.50;;;;;;;8.50;100.00;98029.56;5113706;28;20255;-73
2023/04/12 04:53:42;;;;;;;5.63;2.70;;;;;;;8.50;100.00;98025.25;5113006;28;20308;-73
2023/04/12 04:56:10;;;;;;;3.77;2.43;;;;;;;8.49;100.00;98027.91;5113463;28;20599;-73
2023/04/12 04:58:36;;;;;;;5.73;2.90;;;;;;;8.52;100.00;98035.31;5113172;28;20217;-68
2023/04/12 05:01:04;;;;;;;4.00;2.80;;;;;;;8.58;100.00;98032.28;5113393;28;20193;-73
2023/04/12 05:03:32;;;;;;;5.77;2.73;;;;;;;8.63;100.00;98032.72;5112763;28;20221;-73
2023/04/12 05:06:00;;;;;;;6.67;2.63;;;;;;;8.52;100.00;98040.41;5113399;28;20244;-68
2023/04/12 05:08:28;;;;;;;5.33;3.00;;;;;;;8.55;100.00;98028.25;5113028;28;20769;-68
2023/04/12 05:10:55;;;;;;;3.63;2.47;;;;;;;8.63;100.00;98029.34;5112796;28;20193;-73
2023/04/12 05:13:22;;;;;;;7.07;3.57;;;;;;;8.55;100.00;98032.53;5112591;28;20281;-73
2023/04/12 05:15:49;;;;;;;3.73;2.80;;;;;;;8.61;100.00;98032.06;5112981;28;20228;-68
2023/04/12 05:18:17;;;;;;;4.93;2.63;;;;;;;8.62;100.00;98028.56;5112607;28;20217;-73
2023/04/12 05:20:45;;;;;;;3.63;2.50;;;;;;;8.75;100.00;98034.25;5112801;28;20289;-74
2023/04/12 05:23:12;;;;;;;5.03;2.70;;;;;;;9.15;100.00;98032.72;5112681;28;20228;-68
2023/04/12 05:25:47;;;;;;;5.80;3.27;;;;;;;9.62;100.00;98036.38;5112310;28;20237;-73
2023/04/12 05:28:16;;;;;;;6.60;3.77;;;;;;;9.85;100.00;98028.50;5112197;28;20220;-68
2023/04/12 05:30:43;;;;;;;4.23;2.93;;;;;;;10.18;100.00;98035.78;5112576;28;20659;-69
2023/04/12 05:33:10;;;;;;;4.07;2.80;;;;;;;10.33;100.00;98032.88;5112527;28;20720;-68
2023/04/12 05:35:37;;;;;;;5.70;3.73;;;;;;;10.29;100.00;98027.19;5112417;28;20216;-69
2023/04/12 05:38:04;;;;;;;5.70;3.10;;;;;;;10.61;100.00;98026.91;5112170;28;20780;-73
2023/04/12 05:40:31;;;;;;;6.13;3.00;;;;;;;10.98;100.00;98018.47;5112639;28;20212;-68
2023/04/12 05:42:59;;;;;;;5.33;3.23;;;;;;;11.09;100.00;98025.19;5112287;28;20270;-73
2023/04/12 05:45:26;;;;;;;7.37;3.43;;;;;;;11.37;100.00;98014.97;5112265;28;20240;-69
2023/04/12 05:47:53;;;;;;;6.60;4.13;;;;;;;11.45;100.00;98020.19;5112189;28;20639;-73
2023/04/12 05:50:20;;;;;;;7.00;3.63;;;;;;;11.87;100.00;98017.94;5112080;28;20258;-68
2023/04/12 05:52:48;;;;;;;5.53;3.30;;;;;;;12.07;100.00;98010.94;5112076;28;20719;-69
2023/04/12 05:55:16;;;;;;;5.53;3.23;;;;;;;12.20;100.00;98020.81;5112161;28;20286;-69
2023/04/12 05:57:45;;;;;;;5.63;2.87;;;;;;;12.35;100.00;98014.19;5112119;28;20739;-72
2023/04/12 06:00:17;;;;;;;4.50;2.70;;;;;;;12.60;100.00;98014.38;5112346;28;20270;-68
2023/04/12 06:02:44;;;;;;;7.00;3.27;;;;;;;12.67;98.26;98010.25;5111905;28;20296;-74
2023/04/12 06:05:11;;;;;;;7.40;3.63;;;;;;;12.95;97.52;98005.78;5111990;28;20640;-69
2023/04/12 06:07:38;;;;;;;4.70;3.17;;;;;;;13.08;95.94;98010.47;5111907;28;20771;-73
2023/04/12 06:10:06;;;;;;;4.47;3.30;;;;;;;13.19;97.20;98002.53;5112154;28;20198;-74
2023/04/12 06:12:33;;;;;;;6.30;3.67;;;;;;;13.28;94.83;98006.75;5111631;28;20608;-69
2023/04/12 06:15:00;;;;;;;5.20;3.63;;;;;;;13.23;94.43;98001.25;5111731;28;20198;-74
2023/04/12 06:17:28;;;;;;;15.10;7.40;;;;;;;13.33;95.11;98009.66;5111552;28;20258;-69
2023/04/12 06:19:55;;;;;;;13.87;9.00;;;;;;;13.42;92.92;97997.66;5111601;28;20251;-69
2023/04/12 06:22:22;;;;;;;4.03;2.70;;;;;;;13.71;90.39;98010.09;5111281;28;20215;-69
2023/04/12 06:24:49;;;;;;;12.90;8.63;;;;;;;13.94;89.87;98004.38;5111288;27;20230;-69
2023/04/12 06:27:16;;;;;;;7.43;4.13;;;;;;;14.14;88.57;98013.38;5111388;28;20733;-74
2023/04/12 06:29:43;;;;;;;41.17;21.20;;;;;;;14.21;86.28;98009.19;5111206;28;20728;-68
2023/04/12 06:32:10;;;;;;;55.10;29.63;;;;;;;13.91;87.32;98009.84;5111451;28;20223;-74
2023/04/12 06:34:38;;;;;;;101.70;45.80;;;;;;;13.90;86.29;98010.78;5111220;28;20250;-69
2023/04/12 06:37:04;;;;;;;11.03;5.60;;;;;;;14.07;86.18;98002.13;5111226;28;20488;-75
2023/04/12 06:39:31;;;;;;;65.37;27.90;;;;;;;13.97;85.82;98011.75;5110873;28;20250;-75
2023/04/12 06:41:58;;;;;;;10.50;4.90;;;;;;;13.63;88.19;98004.94;5111251;28;20228;-68
2023/04/12 06:44:26;;;;;;;8.80;4.93;;;;;;;14.01;85.66;98007.91;5110884;28;20194;-74
2023/04/12 06:46:53;;;;;;;10.53;4.80;;;;;;;14.17;83.66;98012.28;5110911;28;20220;-69
2023/04/12 06:49:20;;;;;;;13.30;5.67;;;;;;;14.30;83.05;98011.78;5110888;28;20204;-69
2023/04/12 06:51:48;;;;;;;6.17;3.80;;;;;;;13.97;83.17;98016.91;5110935;28;20275;-74
2023/04/12 06:54:15;;;;;;;10.20;6.03;;;;;;;14.02;82.91;98014.63;5110793;28;20211;-75
2023/04/12 06:56:42;;;;;;;8.03;4.50;;;;;;;14.10;81.96;98011.28;5110630;28;20212;-69
2023/04/12 06:59:08;;;;;;;10.77;4.80;;;;;;;14.07;80.43;98003.91;5110901;28;20210;-75
2023/04/12 07:01:35;;;;;;;3.93;2.57;;;;;;;13.92;81.20;98014.00;5111172;28;20196;-69
2023/04/12 07:04:02;;;;;;;9.10;4.20;;;;;;;13.72;81.15;97988.59;5110501;28;20196;-69
2023/04/12 07:06:29;;;;;;;65.13;22.50;;;;;;;13.15;82.91;98001.22;5110612;28;20235;-69
2023/04/12 07:08:57;;;;;;;19.33;7.43;;;;;;;13.13;85.15;98008.28;5110906;28;20687;-69
2023/04/12 07:11:24;;;;;;;48.37;19.87;;;;;;;12.65;85.44;97996.78;5111149;28;20349;-69
2023/04/12 07:13:51;;;;;;;45.73;15.47;;;;;;;12.94;85.36;97998.22;5110412;28;20201;-69
2023/04/12 07:16:18;;;;;;;79.83;30.73;;;;;;;12.97;85.85;98010.75;5110436;28;20203;-75
2023/04/12 07:18:45;;;;;;;26.83;12.03;;;;;;;12.72;83.75;98002.91;5110359;28;20222;-73
2023/04/12 07:21:13;;;;;;;14.67;6.37;;;;;;;12.58;85.55;98003.47;5110866;28;20230;-69
2023/04/12 07:23:40;;;;;;;43.93;16.03;;;;;;;12.32;86.02;98013.69;5110943;28;20229;-69
2023/04/12 07:26:08;;;;;;;35.60;13.57;;;;;;;12.28;86.45;98018.31;5110033;28;20229;-74
2023/04/12 07:28:36;;;;;;;30.93;12.17;;;;;;;12.16;85.44;98017.72;5110298;28;20214;-72
2023/04/12 07:31:05;;;;;;;21.63;9.97;;;;;;;12.15;86.04;98023.00;5110106;28;20204;-75
2023/04/12 07:33:34;;;;;;;131.13;43.33;;;;;;;12.21;87.72;98022.41;5110199;28;20561;-75
2023/04/12 07:36:01;;;;;;;39.53;14.77;;;;;;;12.10;85.86;98020.06;5110658;28;20280;-68
2023/04/12 07:38:28;;;;;;;51.77;18.37;;;;;;;12.10;87.04;98018.31;5110221;28;20217;-76
2023/04/12 07:40:55;;;;;;;81.13;25.83;;;;;;;12.22;86.43;98027.41;5110012;28;20197;-72
2023/04/12 07:43:23;;;;;;;88.07;31.33;;;;;;;12.45;87.42;98022.63;5110070;28;20315;-72
2023/04/12 07:45:50;;;;;;;112.13;37.03;;;;;;;12.53;84.58;98021.84;5109980;28;20243;-72
2023/04/12 07:48:17;;;;;;;22.37;9.33;;;;;;;12.26;84.26;98027.91;5109847;28;20221;-72
2023/04/12 07:50:44;;;;;;;26.70;10.17;;;;;;;12.37;85.32;98030.22;5109623;28;20586;-76
2023/04/12 07:53:21;;;;;;;29.23;10.70;;;;;;;12.34;84.36;98027.16;5109821;28;20217;-75
2023/04/12 07:55:48;;;;;;;108.17;38.30;;;;;;;12.25;85.71;98039.13;5109746;28;20196;-72
2023/04/12 07:58:15;;;;;;;15.03;5.77;;;;;;;12.42;84.70;98035.72;5110017;28;20596;-75
2023/04/12 08:00:44;;;;;;;4.83;2.40;;;;;;;12.69;83.41;98034.00;5110028;28;20194;-75
2023/04/12 08:03:12;;;;;;;16.83;7.47;;;;;;;13.46;83.16;98034.09;5109957;28;20235;-72
2023/04/12 08:05:39;;;;;;;5.63;1.90;;;;;;;13.82;75.77;98035.50;5109911;28;20281;-75
2023/04/12 08:08:08;;;;;;;11.10;3.60;;;;;;;13.42;76.16;98033.59;5109687;28;20213;-74
2023/04/12 08:10:35;;;;;;;25.97;9.73;;;;;;;13.53;78.93;98035.09;5110046;28;20237;-76
2023/04/12 08:13:02;;;;;;;32.83;12.80;;;;;;;13.83;73.77;98031.16;5109736;28;20226;-72
2023/04/12 08:15:29;;;;;;;185.30;64.47;;;;;;;14.20;71.66;98035.88;5110207;28;20199;-76
2023/04/12 08:17:57;;;;;;;6.97;3.87;;;;;;;13.43;70.46;98029.28;5109804;28;20269;-76
2023/04/12 08:20:24;;;;;;;5.93;3.30;;;;;;;13.04;75.63;98022.81;5110012;28;20202;-76
2023/04/12 08:22:53;;;;;;;49.70;20.43;;;;;;;13.11;78.13;98025.56;5109714;28;20600;-76
2023/04/12 08:25:20;;;;;;;16.57;6.70;;;;;;;13.20;77.15;98040.06;5109394;28;20239;-72
2023/04/12 08:27:47;;;;;;;28.77;11.30;;;;;;;13.06;77.85;98027.78;5109816;28;20217;-76
2023/04/12 08:30:14;;;;;;;9.77;5.03;;;;;;;13.49;78.49;98028.66;5109903;28;20740;-77
2023/04/12 08:32:42;;;;;;;13.17;6.53;;;;;;;13.70;75.76;98015.38;5109954;28;20241;-76
2023/04/12 08:35:10;;;;;;;26.40;11.90;;;;;;;13.76;76.17;98015.59;5109975;28;20212;-72
2023/04/12 08:37:37;;;;;;;36.47;14.60;;;;;;;13.66;73.59;98025.19;5109518;28;20717;-72
2023/04/12 08:40:06;;;;;;;58.97;23.33;;;;;;;13.63;72.98;98030.63;5109458;28;20302;-76
2023/04/12 08:42:35;;;;;;;38.13;14.57;;;;;;;13.88;75.13;98026.38;5109490;28;20234;-76
2023/04/12 08:45:05;;;;;;;83.63;30.57;;;;;;;13.98;72.56;98029.56;5109545;28;20200;-77
2023/04/12 08:47:33;;;;;;;88.33;32.30;;;;;;;13.96;73.19;98025.56;5109562;28;20228;-76
2023/04/12 08:50:01;;;;;;;50.27;16.90;;;;;;;13.92;73.21;98024.28;5109477;28;20685;-72
2023/04/12 08:52:33;;;;;;;12.77;6.00;;;;;;;13.96;73.96;98012.72;5109465;28;20729;-77
2023/04/12 08:55:02;;;;;;;78.33;29.53;;;;;;;14.33;71.59;98019.16;5109534;28;20196;-76
2023/04/12 08:57:29;;;;;;;56.17;19.33;;;;;;;14.50;71.42;98034.44;5109612;28;20215;-72
2023/04/12 08:59:58;;;;;;;63.33;27.53;;;;;;;14.26;70.46;98024.97;5109449;28;20200;-76
2023/04/12 09:02:25;;;;;;;36.07;12.30;;;;;;;14.47;69.27;98019.31;5109658;28;20262;-72
2023/04/12 09:04:52;;;;;;;11.57;5.87;;;;;;;14.35;69.91;98014.69;5113240;28;20668;-77
2023/04/12 09:07:21;;;;;;;16.73;6.57;;;;;;;14.38;70.69;98019.50;5112710;28;20240;-76
2023/04/12 09:09:50;;;;;;;14.27;5.07;;;;;;;14.79;66.88;98011.75;5113103;28;20193;-76
2023/04/12 09:12:19;;;;;;;38.27;14.80;;;;;;;15.40;67.46;98010.28;5113181;28;20693;-72
2023/04/12 09:14:46;;;;;;;45.47;17.77;;;;;;;15.23;64.48;98008.75;5112919;28;20237;-76
2023/04/12 09:17:23;;;;;;;26.57;11.23;;;;;;;14.78;64.14;98010.16;5112691;28;20225;-72
2023/04/12 09:19:50;;;;;;;15.33;5.80;;;;;;;14.60;64.49;98000.88;5112903;28;20197;-72
2023/04/12 09:22:17;;;;;;;13.33;4.83;;;;;;;14.36;64.55;97995.72;5112975;28;20217;-72
2023/04/12 09:24:49;;;;;;;15.43;6.70;;;;;;;14.86;67.03;97997.25;5112801;28;20209;-76
2023/04/12 09:27:19;;;;;;;56.40;19.87;;;;;;;15.27;64.82;97994.56;5112609;28;20233;-72
2023/04/12 09:29:50;;;;;;;8.67;3.57;;;;;;;15.04;63.46;98005.59;5112664;28;20213;-76
2023/04/12 09:32:24;;;;;;;13.07;4.70;;;;;;;14.41;64.94;98014.03;5112546;27;20221;-72
2023/04/12 09:34:56;;;;;;;22.70;9.27;;;;;;;14.44;66.00;98013.72;5112429;28;20649;-72
2023/04/12 09:37:23;;;;;;;19.20;8.00;;;;;;;14.39;64.71;98018.53;5112399;28;20224;-72
2023/04/12 09:40:00;;;;;;;16.23;7.27;;;;;;;14.21;66.04;98013.53;5112329;28;20231;-72
2023/04/12 09:42:28;;;;;;;11.20;4.90;;;;;;;14.10;66.11;98011.28;5112709;28;20224;-72
2023/04/12 09:44:56;;;;;;;5.03;1.77;;;;;;;13.69;67.13;98014.59;5112276;28;20196;-77
2023/04/12 09:47:36;;;;;;;6.17;3.07;;;;;;;13.57;67.96;98026.91;5112339;28;20786;-77
2023/04/12 09:50:04;;;;;;;8.93;3.97;;;;;;;13.22;68.15;98024.50;5112243;28;20283;-77
2023/04/12 09:52:36;;;;;;;3.07;1.53;;;;;;;13.04;67.73;98020.25;5112125;28;20222;-72
2023/04/12 09:55:08;;;;;;;7.43;3.53;;;;;;;13.08;70.44;98020.75;5111948;28;20204;-76
2023/04/12 09:57:37;;;;;;;20.27;8.00;;;;;;;13.10;70.87;98026.53;5112107;28;20640;-76
2023/04/12 10:00:11;;;;;;;51.37;18.87;;;;;;;13.24;69.55;98010.56;5112080;28;20194;-72
2023/04/12 10:02:40;;;;;;;52.03;21.93;;;;;;;13.41;69.55;98021.75;5111935;28;20685;-76
2023/04/12 10:05:09;;;;;;;2.90;1.93;;;;;;;13.46;69.37;98028.97;5111958;28;20288;-72
2023/04/12 10:07:36;;;;;;;6.83;3.03;;;;;;;13.64;69.92;98024.53;5111910;28;20261;-77
2023/04/12 10:10:04;;;;;;;32.90;14.70;;;;;;;13.81;67.90;98028.75;5111904;28;20205;-72
2023/04/12 10:12:31;;;;;;;5.43;2.63;;;;;;;14.00;68.07;98026.88;5111871;28;20305;-77
2023/04/12 10:15:04;;;;;;;2.67;1.60;;;;;;;14.32;66.70;98030.44;5111294;28;20215;-72
2023/04/12 10:17:32;;;;;;;35.67;15.30;;;;;;;14.13;66.04;98027.19;5111789;28;20670;-77
2023/04/12 10:19:59;;;;;;;24.70;9.43;;;;;;;14.71;67.99;98026.25;5111665;28;20198;-76
2023/04/12 10:22:26;;;;;;;25.83;9.13;;;;;;;14.79;65.29;98032.34;5111697;28;20223;-72
2023/04/12 10:24:54;;;;;;;18.20;8.63;;;;;;;14.63;65.51;98034.00;5111201;28;20280;-77
2023/04/12 10:27:26;;;;;;;2.30;1.53;;;;;;;14.38;66.44;98032.34;5111199;28;20237;-72
2023/04/12 10:29:53;;;;;;;5.10;3.03;;;;;;;14.10;66.24;98027.50;5111359;28;20201;-72
2023/04/12 10:32:22;;;;;;;28.00;10.53;;;;;;;13.96;68.39;98030.69;5111243;28;20218;-72
2023/04/12 10:34:53;;;;;;;8.50;3.83;;;;;;;13.70;68.16;98035.94;5111404;28;20204;-72
2023/04/12 10:37:20;;;;;;;41.10;16.90;;;;;;;13.56;67.94;98039.94;5111209;28;20748;-77
2023/04/12 10:39:53;;;;;;;52.00;19.50;;;;;;;13.72;68.08;98034.03;5111492;28;20203;-72
2023/04/12 10:42:25;;;;;;;4.87;2.30;;;;;;;13.81;67.66;98033.06;5111373;28;20219;-77
2023/04/12 10:44:54;;;;;;;3.87;2.20;;;;;;;13.89;67.44;98029.72;5110955;28;20199;-73
2023/04/12 10:48:00;;;;;;;35.03;14.50;;;;;;;14.08;68.30;98029.44;5111073;28;20239;-73
2023/04/12 10:50:28;;;;;;;29.07;13.37;;;;;;;14.18;66.59;98024.94;5110983;28;20214;-75
2023/04/12 10:53:21;;;;;;;20.60;8.37;;;;;;;13.99;68.30;98022.66;5111061;28;20311;-73
2023/04/12 10:55:48;;;;;;;27.17;10.30;;;;;;;14.14;67.43;98028.81;5111154;28;20690;-77
2023/04/12 10:58:49;;;;;;;10.70;5.50;;;;;;;14.31;66.36;98033.94;5110996;28;20289;-78
2023/04/12 11:01:17;;;;;;;11.20;5.90;;;;;;;14.73;65.42;98020.16;5110877;28;20588;-76
2023/04/12 11:04:06;;;;;;;25.63;10.90;;;;;;;15.16;61.96;98034.38;5110482;28;20308;-72
2023/04/12 11:07:00;;;;;;;5.97;3.37;;;;;;;15.85;60.85;98034.53;5110579;28;20675;-72
2023/04/12 11:09:30;;;;;;;13.13;5.47;;;;;;;16.02;61.14;98023.16;5096431;28;20285;-77
2023/04/12 11:11:58;;;;;;;71.60;29.73;;;;;;;16.12;59.72;98035.06;5110763;28;20225;-77
2023/04/12 11:14:30;;;;;;;21.90;10.00;;;;;;;16.32;59.69;98041.34;5110525;28;20201;-72
2023/04/12 11:17:21;;;;;;;9.30;4.03;;;;;;;16.39;58.86;98025.97;5110551;28;20223;-73
2023/04/12 11:19:52;;;;;;;6.03;3.00;;;;;;;16.15;58.33;98021.81;5102838;28;20201;-74
2023/04/12 11:22:21;;;;;;;10.07;3.90;;;;;;;16.45;57.32;98020.91;5110463;28;20289;-77
2023/04/12 11:24:49;;;;;;;2.77;1.83;;;;;;;16.97;56.97;98014.97;5110064;28;20244;-74
2023/04/12 11:27:17;;;;;;;12.97;6.40;;;;;;;16.75;57.10;98026.13;5109938;28;20235;-73
2023/04/12 11:29:45;;;;;;;17.43;7.50;;;;;;;17.22;58.01;98022.44;5110401;28;20205;-78
2023/04/12 11:32:13;;;;;;;4.73;1.93;;;;;;;17.42;57.09;98015.75;5110444;28;20225;-77
2023/04/12 11:34:40;;;;;;;6.87;3.30;;;;;;;17.30;55.73;98014.56;5110235;28;20284;-78
2023/04/12 11:37:10;;;;;;;17.87;7.37;;;;;;;17.01;55.39;98006.84;5110168;28;20703;-74